createdAt,value
2022-09-04T00:00:56.451Z,92.40
2022-09-04T00:03:34.221Z,92.40
2022-09-04T00:06:08.840Z,92.50
2022-09-04T00:08:49.019Z,92.90
2022-09-04T00:11:31.293Z,92.60
2022-09-04T00:14:03.075Z,92.70
2022-09-04T00:16:43.189Z,92.90
2022-09-04T00:19:17.354Z,92.90
2022-09-04T00:21:52.100Z,92.90
2022-09-04T00:24:26.713Z,92.90
2022-09-04T00:27:00.874Z,92.90
2022-09-04T00:29:40.488Z,93.00
2022-09-04T00:32:15.502Z,93.00
2022-09-04T00:34:55.167Z,93.00
2022-09-04T00:37:26.949Z,93.00
2022-09-04T00:40:01.773Z,93.10
2022-09-04T00:42:44.801Z,93.10
2022-09-04T00:45:27.801Z,93.20
2022-09-04T00:48:13.172Z,93.20
2022-09-04T00:50:55.770Z,93.30
2022-09-04T00:53:50.790Z,93.20
2022-09-04T00:56:45.236Z,93.30
2022-09-04T00:59:21.709Z,93.40
2022-09-04T01:01:51.916Z,93.40
2022-09-04T01:04:34.290Z,93.50
2022-09-04T01:07:24.174Z,93.60
2022-09-04T01:10:06.637Z,93.60
2022-09-04T01:12:43.477Z,93.60
2022-09-04T01:15:17.626Z,93.60
2022-09-04T01:18:01.508Z,94.00
2022-09-04T01:20:55.353Z,93.70
2022-09-04T01:23:35.876Z,93.70
2022-09-04T01:26:10.821Z,93.80
2022-09-04T01:28:51.848Z,93.70
2022-09-04T01:31:28.170Z,93.80
2022-09-04T01:34:14.981Z,93.70
2022-09-04T01:36:49.001Z,93.80
2022-09-04T01:39:21.509Z,93.70
2022-09-04T01:41:57.864Z,93.70
2022-09-04T01:44:27.299Z,93.70
2022-09-04T01:47:09.450Z,93.80
2022-09-04T01:49:40.347Z,93.80
2022-09-04T01:52:33.421Z,93.80
2022-09-04T01:55:13.354Z,93.80
2022-09-04T01:57:55.970Z,94.10
2022-09-04T02:00:25.839Z,93.80
2022-09-04T02:03:02.381Z,94.10
2022-09-04T02:05:41.743Z,93.80
2022-09-04T02:08:25.999Z,93.80
2022-09-04T02:11:03.928Z,93.90
2022-09-04T02:13:44.989Z,93.90
2022-09-04T02:16:20.091Z,93.90
2022-09-04T02:19:00.694Z,93.90
2022-09-04T02:21:32.831Z,93.90
2022-09-04T02:24:09.839Z,93.90
2022-09-04T02:26:42.938Z,94.00
2022-09-04T02:29:20.925Z,93.90
2022-09-04T02:31:57.116Z,94.00
2022-09-04T02:34:38.309Z,93.90
2022-09-04T02:37:13.294Z,94.00
2022-09-04T02:39:52.599Z,94.00
2022-09-04T02:42:27.351Z,94.00
2022-09-04T02:45:11.374Z,94.00
2022-09-04T02:47:48.369Z,94.20
2022-09-04T02:50:31.504Z,94.10
2022-09-04T02:53:11.033Z,94.20
2022-09-04T02:55:57.737Z,94.20
2022-09-04T02:58:39.771Z,94.20
2022-09-04T03:01:15.999Z,94.30
2022-09-04T03:03:49.828Z,94.30
2022-09-04T03:06:23.907Z,94.60
2022-09-04T03:08:58.416Z,94.30
2022-09-04T03:11:33.061Z,94.30
2022-09-04T03:14:05.287Z,94.40
2022-09-04T03:16:41.350Z,94.40
2022-09-04T03:19:19.119Z,94.40
2022-09-04T03:21:53.457Z,94.50
2022-09-04T03:24:27.471Z,94.50
2022-09-04T03:26:57.633Z,94.50
2022-09-04T03:29:36.084Z,94.80
2022-09-04T03:32:16.759Z,94.50
2022-09-04T03:34:52.404Z,94.50
2022-09-04T03:37:34.175Z,94.50
2022-09-04T03:40:19.860Z,94.70
2022-09-04T03:43:05.908Z,94.70
2022-09-04T03:45:48.107Z,94.70
2022-09-04T03:48:33.846Z,94.70
2022-09-04T03:51:11.691Z,94.70
2022-09-04T03:53:44.665Z,94.80
2022-09-04T03:56:33.927Z,94.70
2022-09-04T03:59:05.661Z,94.80
2022-09-04T04:01:46.476Z,94.70
2022-09-04T04:04:44.129Z,94.80
2022-09-04T04:07:25.199Z,94.80
2022-09-04T04:10:04.468Z,94.80
2022-09-04T04:12:51.449Z,94.90
2022-09-04T04:15:32.474Z,94.90
2022-09-04T04:18:15.730Z,95.00
2022-09-04T04:20:55.823Z,95.00
2022-09-04T04:23:42.492Z,95.00
2022-09-04T04:26:15.917Z,95.10
2022-09-04T04:29:02.060Z,95.00
2022-09-04T04:31:46.807Z,95.10
2022-09-04T04:34:23.866Z,95.10
2022-09-04T04:37:01.962Z,95.20
2022-09-04T04:39:37.564Z,95.30
2022-09-04T04:42:17.303Z,95.20
2022-09-04T04:45:15.066Z,95.30
2022-09-04T04:48:12.549Z,95.30
2022-09-04T04:50:47.779Z,95.40
2022-09-04T04:53:23.864Z,95.40
2022-09-04T04:55:57.465Z,95.50
2022-09-04T04:58:42.225Z,95.50
2022-09-04T05:01:20.842Z,95.60
2022-09-04T05:04:00.625Z,95.60
2022-09-04T05:06:37.385Z,95.60
2022-09-04T05:09:14.799Z,95.60
2022-09-04T05:11:55.322Z,95.60
2022-09-04T05:14:38.133Z,95.70
2022-09-04T05:17:17.299Z,95.70
2022-09-04T05:19:53.480Z,95.70
2022-09-04T05:22:28.787Z,95.80
2022-09-04T05:25:11.382Z,95.70
2022-09-04T05:27:50.908Z,95.80
2022-09-04T05:30:24.476Z,95.80
2022-09-04T05:32:59.996Z,95.80
2022-09-04T05:35:39.350Z,95.90
2022-09-04T05:38:15.398Z,95.90
2022-09-04T05:41:03.252Z,95.90
2022-09-04T05:43:44.379Z,96.00
2022-09-04T05:46:20.802Z,95.90
2022-09-04T05:48:59.479Z,96.00
2022-09-04T05:51:46.936Z,96.00
2022-09-04T05:54:32.264Z,96.00
2022-09-04T05:57:13.147Z,96.00
2022-09-04T06:00:06.643Z,96.10
2022-09-04T06:03:16.150Z,96.10
2022-09-04T06:05:58.513Z,96.20
2022-09-04T06:08:44.890Z,96.10
2022-09-04T06:11:38.053Z,96.20
2022-09-04T06:14:24.328Z,96.20
2022-09-04T06:17:09.552Z,96.20
2022-09-04T06:19:50.904Z,96.20
2022-09-04T06:22:31.681Z,96.10
2022-09-04T06:25:27.169Z,96.20
2022-09-04T06:28:23.746Z,96.20
2022-09-04T06:31:04.559Z,96.30
2022-09-04T06:33:55.139Z,96.20
2022-09-04T06:36:47.366Z,96.20
2022-09-04T06:39:37.692Z,96.30
2022-09-04T06:42:23.823Z,96.40
2022-09-04T06:45:09.897Z,96.40
2022-09-04T06:47:53.023Z,96.30
2022-09-04T06:50:26.854Z,96.40
2022-09-04T06:53:08.427Z,96.40
2022-09-04T06:55:45.841Z,96.50
2022-09-04T06:58:30.024Z,96.50
2022-09-04T07:01:08.475Z,96.40
2022-09-04T07:03:50.534Z,96.40
2022-09-04T07:06:31.152Z,96.70
2022-09-04T07:09:10.625Z,96.50
2022-09-04T07:11:54.600Z,96.60
2022-09-04T07:14:43.360Z,96.60
2022-09-04T07:17:18.708Z,96.70
2022-09-04T07:20:07.920Z,96.70
2022-09-04T07:22:55.976Z,96.80
2022-09-04T07:25:28.448Z,96.80
2022-09-04T07:28:13.219Z,96.70
2022-09-04T07:30:48.864Z,96.80
2022-09-04T07:33:24.813Z,96.90
2022-09-04T07:36:01.690Z,96.90
2022-09-04T07:38:38.386Z,97.00
2022-09-04T07:41:13.016Z,97.10
2022-09-04T07:43:55.313Z,97.10
2022-09-04T07:46:33.600Z,97.20
2022-09-04T07:49:10.239Z,97.20
2022-09-04T07:51:44.621Z,97.30
2022-09-04T07:54:30.745Z,97.40
2022-09-04T07:57:17.720Z,97.50
2022-09-04T08:00:01.761Z,97.60
2022-09-04T08:02:52.579Z,97.50
2022-09-04T08:05:24.509Z,97.70
2022-09-04T08:08:18.468Z,97.70
2022-09-04T08:11:00.839Z,97.90
2022-09-04T08:13:45.469Z,97.80
2022-09-04T08:16:21.740Z,97.90
2022-09-04T08:19:01.653Z,97.90
2022-09-04T08:21:32.392Z,98.10
2022-09-04T08:24:31.784Z,98.10
2022-09-04T08:27:11.106Z,98.20
2022-09-04T08:30:04.161Z,98.30
2022-09-04T08:33:03.715Z,98.30
2022-09-04T08:35:35.132Z,98.20
2022-09-04T08:38:19.663Z,98.30
2022-09-04T08:41:22.513Z,98.30
2022-09-04T08:44:17.530Z,98.40
2022-09-04T08:47:09.187Z,98.30
2022-09-04T08:50:07.972Z,98.30
2022-09-04T08:53:28.393Z,98.30
2022-09-04T08:56:18.658Z,98.30
2022-09-04T08:59:30.240Z,98.30
2022-09-04T09:02:32.967Z,98.20
2022-09-04T09:05:28.297Z,98.20
2022-09-04T09:08:17.214Z,98.00
2022-09-04T09:11:12.656Z,98.00
2022-09-04T09:14:01.946Z,98.00
2022-09-04T09:16:43.996Z,98.00
2022-09-04T09:19:23.293Z,98.10
2022-09-04T09:22:10.294Z,97.90
2022-09-04T09:25:08.064Z,97.80
2022-09-04T09:28:06.624Z,97.70
2022-09-04T09:30:51.285Z,97.60
2022-09-04T09:33:46.380Z,97.50
2022-09-04T09:36:35.582Z,97.40
2022-09-04T09:39:43.917Z,97.20
2022-09-04T09:42:47.167Z,97.30
2022-09-04T09:45:42.265Z,97.30
2022-09-04T09:48:39.315Z,97.30
2022-09-04T09:51:42.793Z,97.30
2022-09-04T09:54:47.002Z,96.90
2022-09-04T09:57:52.016Z,97.00
2022-09-04T10:00:21.404Z,97.10
2022-09-04T10:03:25.303Z,97.20
2022-09-04T10:06:36.609Z,97.00
2022-09-04T10:09:34.677Z,96.70
2022-09-04T10:12:36.370Z,96.50
2022-09-04T10:15:23.543Z,96.60
2022-09-04T10:18:34.037Z,96.60
2022-09-04T10:21:20.816Z,96.70
2022-09-04T10:24:12.704Z,96.70
2022-09-04T10:27:16.357Z,96.70
2022-09-04T10:30:02.226Z,96.50
2022-09-04T10:32:52.229Z,96.40
2022-09-04T10:35:26.255Z,96.40
2022-09-04T10:38:27.905Z,96.30
2022-09-04T10:41:24.656Z,96.30
2022-09-04T10:44:10.730Z,96.10
2022-09-04T10:46:48.905Z,96.00
2022-09-04T10:49:38.684Z,95.90
2022-09-04T10:52:24.584Z,95.80
2022-09-04T10:55:36.633Z,95.70
2022-09-04T10:58:28.369Z,95.00
2022-09-04T11:01:17.321Z,95.20
2022-09-04T11:04:13.981Z,95.20
2022-09-04T11:07:12.366Z,95.20
2022-09-04T11:09:55.231Z,95.20
2022-09-04T11:12:41.158Z,95.20
2022-09-04T11:15:27.685Z,95.10
2022-09-04T11:18:31.553Z,95.10
2022-09-04T11:21:23.774Z,94.30
2022-09-04T11:24:21.160Z,94.50
2022-09-04T11:27:31.107Z,94.50
2022-09-04T11:30:06.489Z,94.70
2022-09-04T11:32:53.351Z,94.80
2022-09-04T11:35:56.744Z,94.90
2022-09-04T11:38:43.944Z,94.30
2022-09-04T11:41:45.577Z,94.20
2022-09-04T11:44:36.173Z,94.10
2022-09-04T11:47:40.032Z,94.40
2022-09-04T11:50:19.576Z,94.50
2022-09-04T11:53:27.611Z,94.60
2022-09-04T11:56:19.055Z,94.30
2022-09-04T11:59:27.439Z,94.40
2022-09-04T12:02:18.584Z,94.40
2022-09-04T12:05:08.287Z,94.30
2022-09-04T12:07:49.636Z,94.30
2022-09-04T12:10:28.838Z,94.30
2022-09-04T12:13:23.839Z,94.10
2022-09-04T12:16:42.731Z,93.90
2022-09-04T12:19:39.976Z,93.70
2022-09-04T12:22:37.232Z,94.10
2022-09-04T12:25:25.276Z,94.20
2022-09-04T12:28:34.056Z,93.90
2022-09-04T12:31:25.283Z,94.00
2022-09-04T12:34:08.166Z,94.00
2022-09-04T12:37:13.267Z,94.10
2022-09-04T12:40:04.227Z,93.70
2022-09-04T12:42:37.594Z,93.20
2022-09-04T12:45:15.823Z,93.20
2022-09-04T12:47:58.163Z,93.20
2022-09-04T12:50:34.724Z,92.80
2022-09-04T12:53:31.633Z,92.70
2022-09-04T12:56:08.367Z,93.00
2022-09-04T12:58:52.373Z,92.60
2022-09-04T13:01:32.127Z,92.90
2022-09-04T13:04:12.987Z,92.70
2022-09-04T13:06:53.367Z,92.80
2022-09-04T13:09:32.403Z,92.70
2022-09-04T13:12:12.907Z,92.70
2022-09-04T13:14:57.664Z,92.10
2022-09-04T13:17:32.180Z,92.10
2022-09-04T13:20:11.279Z,92.30
2022-09-04T13:22:57.753Z,92.00
2022-09-04T13:25:33.220Z,91.60
2022-09-04T13:28:17.266Z,90.60
2022-09-04T13:30:53.136Z,90.40
2022-09-04T13:33:39.850Z,90.50
2022-09-04T13:36:24.140Z,90.90
2022-09-04T13:39:20.347Z,91.10
2022-09-04T13:42:14.612Z,91.30
2022-09-04T13:44:58.265Z,90.70
2022-09-04T13:47:32.145Z,91.10
2022-09-04T13:50:09.021Z,90.70
2022-09-04T13:52:45.724Z,90.20
2022-09-04T13:55:19.364Z,89.00
2022-09-04T13:57:57.530Z,89.90
2022-09-04T14:00:27.033Z,89.00
2022-09-04T14:03:03.768Z,89.30
2022-09-04T14:05:37.652Z,89.40
2022-09-04T14:08:13.488Z,89.20
2022-09-04T14:11:17.719Z,88.60
2022-09-04T14:14:11.394Z,89.20
2022-09-04T14:16:42.512Z,89.50
2022-09-04T14:19:32.144Z,87.50
2022-09-04T14:22:24.171Z,86.50
2022-09-04T14:25:11.717Z,87.40
2022-09-04T14:27:46.957Z,88.20
2022-09-04T14:30:16.966Z,88.40
2022-09-04T14:32:58.412Z,87.30
2022-09-04T14:35:35.919Z,87.70
2022-09-04T14:38:27.323Z,88.20
2022-09-04T14:41:07.036Z,88.40
2022-09-04T14:43:46.686Z,88.10
2022-09-04T14:46:24.372Z,87.20
2022-09-04T14:49:04.067Z,86.70
2022-09-04T14:51:36.697Z,86.50
2022-09-04T14:54:06.482Z,86.10
2022-09-04T14:56:43.987Z,85.90
2022-09-04T14:59:19.208Z,86.00
2022-09-04T15:02:02.944Z,86.50
2022-09-04T15:04:37.264Z,86.80
2022-09-04T15:07:25.128Z,86.80
2022-09-04T15:09:54.793Z,85.10
2022-09-04T15:12:29.942Z,84.80
2022-09-04T15:15:08.600Z,84.90
2022-09-04T15:17:40.548Z,85.20
2022-09-04T15:20:15.218Z,84.90
2022-09-04T15:22:52.001Z,84.30
2022-09-04T15:25:57.723Z,84.50
2022-09-04T15:28:38.571Z,84.60
2022-09-04T15:31:15.938Z,86.20
2022-09-04T15:33:46.669Z,86.30
2022-09-04T15:36:20.933Z,86.10
2022-09-04T15:38:53.422Z,86.70
2022-09-04T15:41:35.990Z,86.20
2022-09-04T15:44:18.718Z,86.50
2022-09-04T15:46:58.773Z,85.40
2022-09-04T15:49:37.923Z,85.40
2022-09-04T15:52:20.034Z,84.70
2022-09-04T15:55:05.605Z,85.30
2022-09-04T15:57:47.617Z,85.60
2022-09-04T16:00:22.350Z,85.40
2022-09-04T16:02:59.065Z,85.10
2022-09-04T16:05:35.173Z,85.30
2022-09-04T16:08:10.725Z,84.70
2022-09-04T16:10:49.928Z,85.00
2022-09-04T16:13:36.010Z,85.20
2022-09-04T16:16:13.908Z,85.40
2022-09-04T16:18:58.600Z,85.70
2022-09-04T16:21:40.831Z,85.70
2022-09-04T16:24:13.934Z,85.90
2022-09-04T16:26:42.548Z,85.90
2022-09-04T16:29:26.247Z,85.20
2022-09-04T16:31:59.003Z,85.60
2022-09-04T16:34:30.807Z,84.70
2022-09-04T16:37:07.327Z,84.20
2022-09-04T16:39:44.731Z,83.80
2022-09-04T16:42:21.316Z,83.80
2022-09-04T16:44:56.145Z,84.00
2022-09-04T16:47:32.919Z,83.90
2022-09-04T16:50:13.533Z,83.70
2022-09-04T16:52:58.832Z,83.80
2022-09-04T16:56:12.603Z,83.40
2022-09-04T16:58:54.646Z,83.70
2022-09-04T17:01:29.780Z,83.80
2022-09-04T17:04:19.651Z,84.00
2022-09-04T17:07:02.704Z,84.20
2022-09-04T17:09:44.893Z,84.30
2022-09-04T17:12:23.848Z,84.50
2022-09-04T17:14:57.251Z,84.80
2022-09-04T17:17:30.931Z,85.00
2022-09-04T17:20:08.358Z,85.20
2022-09-04T17:29:00.111Z,85.40
2022-09-04T17:29:07.540Z,85.50
2022-09-04T17:29:13.158Z,85.80
2022-09-04T17:31:38.508Z,86.30
2022-09-04T17:40:30.447Z,86.50
2022-09-04T17:40:36.993Z,86.80
2022-09-04T17:41:33.255Z,87.10
2022-09-04T17:43:21.541Z,87.30
2022-09-04T17:46:02.417Z,87.70
2022-09-04T17:48:33.472Z,88.00
2022-09-04T17:51:04.325Z,88.10
2022-09-04T17:53:38.987Z,88.40
2022-09-04T17:56:15.124Z,88.40
2022-09-04T17:58:50.499Z,88.60
2022-09-04T18:01:25.237Z,88.60
2022-09-04T18:04:21.057Z,88.80
2022-09-04T18:07:00.558Z,89.00
2022-09-04T18:10:00.975Z,89.00
2022-09-04T18:12:35.480Z,89.50
2022-09-04T18:15:32.241Z,89.60
2022-09-04T18:18:07.220Z,89.90
2022-09-04T18:20:41.519Z,90.00
2022-09-04T18:23:30.836Z,90.00
2022-09-04T18:26:10.183Z,90.10
2022-09-04T18:28:50.594Z,90.20
2022-09-04T18:37:12.404Z,90.30
2022-09-04T18:37:17.994Z,90.30
2022-09-04T18:37:44.104Z,90.40
2022-09-04T18:40:12.650Z,90.50
2022-09-04T18:50:21.702Z,90.70
2022-09-04T18:50:47.145Z,90.70
2022-09-04T18:51:03.240Z,90.80
2022-09-04T18:51:31.360Z,90.80
2022-09-04T18:54:08.420Z,90.90
2022-09-04T18:56:43.300Z,90.90
2022-09-04T18:59:19.923Z,91.00
2022-09-04T19:01:56.571Z,91.00
2022-09-04T19:04:38.913Z,91.00
2022-09-04T19:07:10.867Z,91.10
2022-09-04T19:09:57.052Z,91.10
2022-09-04T19:12:36.972Z,91.20
2022-09-04T19:15:37.769Z,91.30
2022-09-04T19:18:14.512Z,91.40
2022-09-04T19:20:48.340Z,91.40
2022-09-04T19:23:26.718Z,91.50
2022-09-04T19:25:57.516Z,91.60
2022-09-04T19:28:30.354Z,91.60
2022-09-04T19:31:06.010Z,91.70
2022-09-04T19:33:40.572Z,91.70
2022-09-04T19:36:13.872Z,91.80
2022-09-04T19:44:28.650Z,91.80
2022-09-04T19:45:57.876Z,91.80
2022-09-04T19:46:12.083Z,91.80
2022-09-04T19:47:29.375Z,91.80
2022-09-04T19:53:17.883Z,91.90
2022-09-04T19:53:36.584Z,91.90
2022-09-04T19:56:08.514Z,92.00
2022-09-04T19:58:42.648Z,92.00
2022-09-04T20:01:17.209Z,92.10
2022-09-04T20:03:52.439Z,92.10
2022-09-04T20:06:25.616Z,92.20
2022-09-04T20:09:00.197Z,92.20
2022-09-04T20:11:35.705Z,92.30
2022-09-04T20:14:13.799Z,92.60
2022-09-04T20:16:53.361Z,92.30
2022-09-04T20:19:28.973Z,92.30
2022-09-04T20:22:01.952Z,92.30
2022-09-04T20:24:39.825Z,92.30
2022-09-04T20:27:15.962Z,92.50
2022-09-04T20:29:54.570Z,92.50
2022-09-04T20:32:26.813Z,92.80
2022-09-04T20:35:13.575Z,92.50
2022-09-04T20:37:46.179Z,92.50
2022-09-04T20:40:27.146Z,92.50
2022-09-04T20:43:11.799Z,92.50
2022-09-04T20:50:46.655Z,92.50
2022-09-04T20:52:50.934Z,92.50
2022-09-04T20:53:05.703Z,92.50
2022-09-04T20:54:48.024Z,92.60
2022-09-04T21:03:05.491Z,92.60
2022-09-04T21:03:18.529Z,92.60
2022-09-04T21:03:28.103Z,92.70
2022-09-04T21:06:17.541Z,92.70
2022-09-04T21:08:53.104Z,92.80
2022-09-04T21:11:39.463Z,92.80
2022-09-04T21:14:15.242Z,92.90
2022-09-04T21:16:59.483Z,92.90
2022-09-04T21:20:00.944Z,92.90
2022-09-04T21:22:48.631Z,93.20
2022-09-04T21:25:43.143Z,93.00
2022-09-04T21:28:40.330Z,93.00
2022-09-04T21:31:18.511Z,93.00
2022-09-04T21:34:05.169Z,93.10
2022-09-04T21:36:41.033Z,93.10
2022-09-04T21:39:39.318Z,93.20
2022-09-04T21:42:32.424Z,93.20
2022-09-04T21:45:35.921Z,93.20
2022-09-04T21:48:23.412Z,93.30
2022-09-04T21:50:59.013Z,93.30
2022-09-04T21:54:02.165Z,93.40
2022-09-04T22:02:25.206Z,93.30
2022-09-04T22:02:41.330Z,93.40
2022-09-04T22:03:21.747Z,93.50
2022-09-04T22:06:03.921Z,93.50
2022-09-04T22:12:18.230Z,93.50
2022-09-04T22:13:37.849Z,93.50
2022-09-04T22:14:38.369Z,93.60
2022-09-04T22:17:28.560Z,93.60
2022-09-04T22:20:22.124Z,93.70
2022-09-04T22:23:27.772Z,93.80
2022-09-04T22:26:23.922Z,93.80
2022-09-04T22:29:08.248Z,93.70
2022-09-04T22:32:03.016Z,93.70
2022-09-04T22:35:14.587Z,93.80
2022-09-04T22:38:30.461Z,93.80
2022-09-04T22:41:27.984Z,93.80
2022-09-04T22:44:11.940Z,93.90
2022-09-04T22:47:23.704Z,93.90
2022-09-04T22:50:19.448Z,94.30
2022-09-04T22:53:02.789Z,94.30
2022-09-04T22:56:22.949Z,94.00
2022-09-04T22:59:26.222Z,94.10
2022-09-04T23:02:13.559Z,94.40
2022-09-04T23:05:00.515Z,94.60
2022-09-04T23:13:43.116Z,94.30
2022-09-04T23:13:53.252Z,94.30
2022-09-04T23:14:13.431Z,94.40
2022-09-04T23:17:02.707Z,94.40
2022-09-04T23:26:30.968Z,94.40
2022-09-04T23:26:41.496Z,94.50
2022-09-04T23:26:58.387Z,94.50
2022-09-04T23:29:41.241Z,94.60
2022-09-04T23:32:36.159Z,94.60
2022-09-04T23:35:16.627Z,94.70
2022-09-04T23:38:04.633Z,94.70
2022-09-04T23:40:39.470Z,94.80
2022-09-04T23:43:40.782Z,94.80
2022-09-04T23:46:26.516Z,94.80
2022-09-04T23:49:18.017Z,94.80
2022-09-04T23:51:55.352Z,94.90
2022-09-04T23:54:50.316Z,95.30
2022-09-04T23:57:27.169Z,95.00
